createdAt,value
2023-04-18T00:01:22.181Z,46.06
2023-04-18T00:03:52.183Z,45.33
2023-04-18T00:06:22.800Z,45.13
2023-04-18T00:08:51.774Z,45.51
2023-04-18T00:11:20.266Z,45.10
2023-04-18T00:13:48.884Z,45.03
2023-04-18T00:16:17.605Z,45.14
2023-04-18T00:18:48.899Z,45.15
2023-04-18T00:21:18.082Z,45.43
2023-04-18T00:23:47.040Z,45.11
2023-04-18T00:26:15.660Z,45.36
2023-04-18T00:28:46.048Z,45.28
2023-04-18T00:31:14.788Z,45.66
2023-04-18T00:33:43.741Z,45.00
2023-04-18T00:36:12.259Z,44.85
2023-04-18T00:38:43.038Z,45.53
2023-04-18T00:41:11.757Z,45.11
2023-04-18T00:43:40.431Z,45.18
2023-04-18T00:46:09.726Z,45.18
2023-04-18T00:48:40.001Z,45.29
2023-04-18T00:51:09.529Z,45.10
2023-04-18T00:53:38.473Z,44.83
2023-04-18T00:56:08.247Z,44.51
2023-04-18T00:58:41.419Z,44.30
2023-04-18T01:01:10.618Z,44.46
2023-04-18T01:03:40.138Z,44.20
2023-04-18T01:06:09.057Z,43.85
2023-04-18T01:08:38.069Z,44.09
2023-04-18T01:11:07.029Z,43.92
2023-04-18T01:13:35.478Z,43.58
2023-04-18T01:16:05.418Z,43.67
2023-04-18T01:18:35.791Z,43.31
2023-04-18T01:21:06.897Z,43.82
2023-04-18T01:23:35.598Z,44.21
2023-04-18T01:26:04.281Z,44.02
2023-04-18T01:28:38.271Z,44.57
2023-04-18T01:31:09.153Z,44.86
2023-04-18T01:33:38.613Z,44.83
2023-04-18T01:36:07.438Z,44.82
2023-04-18T01:38:36.164Z,45.43
2023-04-18T01:41:04.781Z,45.26
2023-04-18T01:43:33.570Z,45.43
2023-04-18T01:46:04.820Z,45.51
2023-04-18T01:48:34.101Z,44.73
2023-04-18T01:51:02.949Z,45.30
2023-04-18T01:53:33.238Z,44.82
2023-04-18T01:56:02.070Z,43.50
2023-04-18T01:58:30.742Z,43.23
2023-04-18T02:00:59.373Z,41.95
2023-04-18T02:03:28.333Z,41.13
2023-04-18T02:05:57.165Z,38.90
2023-04-18T02:08:25.905Z,38.00
2023-04-18T02:10:54.661Z,37.33
2023-04-18T02:13:23.242Z,37.24
2023-04-18T02:15:55.528Z,36.27
2023-04-18T02:18:26.233Z,35.82
2023-04-18T02:20:55.094Z,35.39
2023-04-18T02:23:23.612Z,35.11
2023-04-18T02:25:57.437Z,34.68
2023-04-18T02:28:26.257Z,34.37
2023-04-18T02:30:56.552Z,35.24
2023-04-18T02:33:25.163Z,35.25
2023-04-18T02:35:54.336Z,35.48
2023-04-18T02:38:23.011Z,35.89
2023-04-18T02:40:53.713Z,35.56
2023-04-18T02:43:22.198Z,36.25
2023-04-18T02:45:50.978Z,36.25
2023-04-18T02:48:19.620Z,36.58
2023-04-18T02:50:48.342Z,36.68
2023-04-18T02:53:17.884Z,36.55
2023-04-18T02:55:56.835Z,36.63
2023-04-18T02:58:35.633Z,36.62
2023-04-18T03:01:24.981Z,37.10
2023-04-18T03:04:03.925Z,36.97
2023-04-18T03:06:43.261Z,37.03
2023-04-18T03:09:12.217Z,36.78
2023-04-18T03:11:46.171Z,37.34
2023-04-18T03:14:15.849Z,37.15
2023-04-18T03:16:53.069Z,37.57
2023-04-18T03:19:27.575Z,37.33
2023-04-18T03:21:59.882Z,37.49
2023-04-18T03:24:29.083Z,37.54
2023-04-18T03:27:01.528Z,37.43
2023-04-18T03:29:30.223Z,37.18
2023-04-18T03:31:59.225Z,37.35
2023-04-18T03:34:28.143Z,37.17
2023-04-18T03:36:57.229Z,36.72
2023-04-18T03:39:27.045Z,36.74
2023-04-18T03:41:55.903Z,37.00
2023-04-18T03:44:24.651Z,36.20
2023-04-18T03:46:53.281Z,36.06
2023-04-18T03:49:22.132Z,36.08
2023-04-18T03:51:50.969Z,36.37
2023-04-18T03:54:20.219Z,35.96
2023-04-18T03:56:50.755Z,35.52
2023-04-18T03:59:19.529Z,35.84
2023-04-18T04:01:51.258Z,36.15
2023-04-18T04:04:20.719Z,35.59
2023-04-18T04:06:49.481Z,35.37
2023-04-18T04:09:18.315Z,35.31
2023-04-18T04:11:47.025Z,34.83
2023-04-18T04:14:16.904Z,34.59
2023-04-18T04:16:47.691Z,34.96
2023-04-18T04:19:18.597Z,34.80
2023-04-18T04:21:57.825Z,35.03
2023-04-18T04:24:26.478Z,34.85
2023-04-18T04:26:57.025Z,34.51
2023-04-18T04:29:29.693Z,34.15
2023-04-18T04:32:02.484Z,34.29
2023-04-18T04:34:38.558Z,33.66
2023-04-18T04:37:08.905Z,33.58
2023-04-18T04:39:46.902Z,33.39
2023-04-18T04:42:54.736Z,33.67
2023-04-18T04:45:30.599Z,33.73
2023-04-18T04:47:59.900Z,33.39
2023-04-18T04:50:28.774Z,32.91
2023-04-18T04:52:57.597Z,33.32
2023-04-18T04:55:26.364Z,32.66
2023-04-18T04:57:56.622Z,33.21
2023-04-18T05:00:34.583Z,33.55
2023-04-18T05:03:03.530Z,33.66
2023-04-18T05:05:32.468Z,33.58
2023-04-18T05:08:01.806Z,33.35
2023-04-18T05:10:31.330Z,33.70
2023-04-18T05:12:59.942Z,33.73
2023-04-18T05:15:28.659Z,33.22
2023-04-18T05:17:57.333Z,33.22
2023-04-18T05:20:26.088Z,33.20
2023-04-18T05:22:54.800Z,33.26
2023-04-18T05:25:23.440Z,33.32
2023-04-18T05:27:52.588Z,33.78
2023-04-18T05:30:21.394Z,34.13
2023-04-18T05:32:50.307Z,33.64
2023-04-18T05:35:19.174Z,33.38
2023-04-18T05:37:48.241Z,34.02
2023-04-18T05:40:17.482Z,33.80
2023-04-18T05:42:46.103Z,33.91
2023-04-18T05:45:15.285Z,34.42
2023-04-18T05:47:43.930Z,34.40
2023-04-18T05:50:13.166Z,34.86
2023-04-18T05:52:41.866Z,35.11
2023-04-18T05:55:10.904Z,35.04
2023-04-18T05:57:39.812Z,35.48
2023-04-18T06:00:12.033Z,34.98
2023-04-18T06:02:43.687Z,36.05
2023-04-18T06:05:14.063Z,36.23
2023-04-18T06:07:43.431Z,36.78
2023-04-18T06:10:14.034Z,36.78
2023-04-18T06:12:43.277Z,36.82
2023-04-18T06:15:12.611Z,36.78
2023-04-18T06:17:41.691Z,37.27
2023-04-18T06:20:11.322Z,37.43
2023-04-18T06:22:40.062Z,37.83
2023-04-18T06:25:11.973Z,37.95
2023-04-18T06:27:41.257Z,38.84
2023-04-18T06:30:11.605Z,39.43
2023-04-18T06:32:40.463Z,39.00
2023-04-18T06:35:09.453Z,38.24
2023-04-18T06:37:38.307Z,37.83
2023-04-18T06:40:07.457Z,37.61
2023-04-18T06:42:36.319Z,37.94
2023-04-18T06:45:06.929Z,37.31
2023-04-18T06:47:35.664Z,36.84
2023-04-18T06:50:04.799Z,35.79
2023-04-18T06:52:33.454Z,35.91
2023-04-18T06:55:02.218Z,34.98
2023-04-18T06:57:30.882Z,35.23
2023-04-18T06:59:59.594Z,34.82
2023-04-18T07:02:28.137Z,34.85
2023-04-18T07:04:57.071Z,35.11
2023-04-18T07:07:27.080Z,34.73
2023-04-18T07:09:55.955Z,34.58
2023-04-18T07:12:24.636Z,34.34
2023-04-18T07:14:53.764Z,34.72
2023-04-18T07:17:22.300Z,34.75
2023-04-18T07:19:51.021Z,34.59
2023-04-18T07:22:19.743Z,34.59
2023-04-18T07:24:48.363Z,34.46
2023-04-18T07:27:17.077Z,34.03
2023-04-18T07:29:47.951Z,34.50
2023-04-18T07:32:16.641Z,34.83
2023-04-18T07:34:47.789Z,34.12
2023-04-18T07:37:18.272Z,33.52
2023-04-18T07:39:46.961Z,33.58
2023-04-18T07:42:15.633Z,33.12
2023-04-18T07:44:48.223Z,32.97
2023-04-18T07:47:17.114Z,33.25
2023-04-18T07:49:45.742Z,33.92
2023-04-18T07:52:14.269Z,33.68
2023-04-18T07:54:43.076Z,33.21
2023-04-18T07:57:11.853Z,34.32
2023-04-18T07:59:40.664Z,34.79
2023-04-18T08:02:09.297Z,34.95
2023-04-18T08:04:38.059Z,35.11
2023-04-18T08:07:07.002Z,35.82
2023-04-18T08:09:35.734Z,35.29
2023-04-18T08:12:04.428Z,35.63
2023-04-18T08:14:33.419Z,35.39
2023-04-18T08:17:02.201Z,35.87
2023-04-18T08:19:30.789Z,35.42
2023-04-18T08:22:11.672Z,35.22
2023-04-18T08:24:41.675Z,35.24
2023-04-18T08:27:15.179Z,35.03
2023-04-18T08:29:43.928Z,34.49
2023-04-18T08:32:12.495Z,35.20
2023-04-18T08:34:41.311Z,35.16
2023-04-18T08:37:10.808Z,35.69
2023-04-18T08:39:39.564Z,35.93
2023-04-18T08:42:11.150Z,36.05
2023-04-18T08:44:40.002Z,35.93
2023-04-18T08:47:10.535Z,35.90
2023-04-18T08:49:40.799Z,36.38
2023-04-18T08:52:17.906Z,35.97
2023-04-18T08:54:47.854Z,35.82
2023-04-18T08:57:17.604Z,35.53
2023-04-18T08:59:48.944Z,35.28
2023-04-18T09:02:20.108Z,35.24
2023-04-18T09:05:00.906Z,35.50
2023-04-18T09:07:30.680Z,35.73
2023-04-18T09:09:59.410Z,35.42
2023-04-18T09:12:33.169Z,34.61
2023-04-18T09:15:16.321Z,34.11
2023-04-18T09:17:50.188Z,34.24
2023-04-18T09:20:42.880Z,34.21
2023-04-18T09:23:15.303Z,34.54
2023-04-18T09:25:48.797Z,34.46
2023-04-18T09:28:29.858Z,34.32
2023-04-18T09:31:15.299Z,35.19
2023-04-18T09:33:57.521Z,33.93
2023-04-18T09:36:28.263Z,34.51
2023-04-18T09:38:57.524Z,35.02
2023-04-18T09:41:26.131Z,35.52
2023-04-18T09:44:14.864Z,36.05
2023-04-18T09:46:47.218Z,36.13
2023-04-18T09:49:17.409Z,37.11
2023-04-18T09:51:47.008Z,37.05
2023-04-18T09:54:20.605Z,37.12
2023-04-18T09:56:51.549Z,37.61
2023-04-18T09:59:35.156Z,38.25
2023-04-18T10:02:08.683Z,38.53
2023-04-18T10:04:38.171Z,38.58
2023-04-18T10:07:09.767Z,38.27
2023-04-18T10:09:40.385Z,39.06
2023-04-18T10:12:13.397Z,38.74
2023-04-18T10:14:43.929Z,38.96
2023-04-18T10:17:15.129Z,39.46
2023-04-18T10:19:46.711Z,39.48
2023-04-18T10:22:15.429Z,39.20
2023-04-18T10:24:50.724Z,39.77
2023-04-18T10:27:40.471Z,39.88
2023-04-18T10:30:10.147Z,40.93
2023-04-18T10:32:40.456Z,41.40
2023-04-18T10:35:09.629Z,41.00
2023-04-18T10:38:00.632Z,41.78
2023-04-18T10:40:36.778Z,43.15
2023-04-18T10:43:07.468Z,44.14
2023-04-18T10:45:37.253Z,45.55
2023-04-18T10:48:26.040Z,46.42
2023-04-18T10:51:17.544Z,47.63
2023-04-18T10:53:59.876Z,47.20
2023-04-18T10:56:29.771Z,47.79
2023-04-18T10:59:04.069Z,48.55
2023-04-18T11:01:35.441Z,48.24
2023-04-18T11:04:14.380Z,48.49
2023-04-18T11:06:56.811Z,49.40
2023-04-18T11:09:26.538Z,50.15
2023-04-18T11:12:05.849Z,50.66
2023-04-18T11:14:45.068Z,51.51
2023-04-18T11:17:19.763Z,51.73
2023-04-18T11:20:02.397Z,51.96
2023-04-18T11:22:31.833Z,52.33
2023-04-18T11:25:09.369Z,52.30
2023-04-18T11:27:38.370Z,52.74
2023-04-18T11:30:07.990Z,52.93
2023-04-18T11:32:37.201Z,53.23
2023-04-18T11:35:06.410Z,53.46
2023-04-18T11:37:38.369Z,53.28
2023-04-18T11:40:09.668Z,53.32
2023-04-18T11:42:40.247Z,53.35
2023-04-18T11:45:14.349Z,53.62
2023-04-18T11:47:44.285Z,52.44
2023-04-18T11:50:14.577Z,51.96
2023-04-18T11:52:43.482Z,51.59
2023-04-18T11:55:27.864Z,51.24
2023-04-18T11:58:02.252Z,51.60
2023-04-18T12:00:39.272Z,51.24
2023-04-18T12:03:19.512Z,51.55
2023-04-18T12:05:48.721Z,51.19
2023-04-18T12:08:21.827Z,51.70
2023-04-18T12:10:52.433Z,51.27
2023-04-18T12:13:32.827Z,51.34
2023-04-18T12:16:03.568Z,50.87
2023-04-18T12:18:33.116Z,51.99
2023-04-18T12:21:06.570Z,51.43
2023-04-18T12:23:37.827Z,51.66
2023-04-18T12:26:08.753Z,52.19
2023-04-18T12:28:37.327Z,51.71
2023-04-18T12:31:09.752Z,52.21
2023-04-18T12:33:38.562Z,52.01
2023-04-18T12:36:09.305Z,51.12
2023-04-18T12:38:40.647Z,51.64
2023-04-18T12:41:09.705Z,51.15
2023-04-18T12:43:39.209Z,51.05
2023-04-18T12:46:07.989Z,51.30
2023-04-18T12:48:36.724Z,51.31
2023-04-18T12:51:05.598Z,51.32
2023-04-18T12:53:34.468Z,51.03
2023-04-18T12:56:06.223Z,51.12
2023-04-18T12:58:37.765Z,50.52
2023-04-18T13:01:07.440Z,50.33
2023-04-18T13:03:37.920Z,50.33
2023-04-18T13:06:07.434Z,50.32
2023-04-18T13:08:38.226Z,50.19
2023-04-18T13:11:07.546Z,50.01
2023-04-18T13:13:37.156Z,49.99
2023-04-18T13:16:06.613Z,49.59
2023-04-18T13:18:35.772Z,49.99
2023-04-18T13:21:04.636Z,50.10
2023-04-18T13:23:33.474Z,50.17
2023-04-18T13:26:02.735Z,49.71
2023-04-18T13:28:31.432Z,49.11
2023-04-18T13:31:00.516Z,49.36
2023-04-18T13:33:29.101Z,49.26
2023-04-18T13:35:57.596Z,48.82
2023-04-18T13:38:29.126Z,48.44
2023-04-18T13:41:08.896Z,49.00
2023-04-18T13:43:40.008Z,48.69
2023-04-18T13:46:08.739Z,48.97
2023-04-18T13:48:37.629Z,48.28
2023-04-18T13:51:06.598Z,49.17
2023-04-18T13:53:35.338Z,48.75
2023-04-18T13:56:04.192Z,49.09
2023-04-18T13:58:33.297Z,49.43
2023-04-18T14:01:02.554Z,49.30
2023-04-18T14:03:35.389Z,49.86
2023-04-18T14:06:08.638Z,49.73
2023-04-18T14:08:40.778Z,49.62
2023-04-18T14:11:09.698Z,49.71
2023-04-18T14:13:38.594Z,50.43
2023-04-18T14:16:08.100Z,49.94
2023-04-18T14:18:40.277Z,50.20
2023-04-18T14:21:08.890Z,50.20
2023-04-18T14:23:37.684Z,49.90
2023-04-18T14:26:06.709Z,49.49
2023-04-18T14:28:35.455Z,50.00
2023-04-18T14:31:07.190Z,49.27
2023-04-18T14:33:36.446Z,49.99
2023-04-18T14:36:05.553Z,49.57
2023-04-18T14:38:34.648Z,49.02
2023-04-18T14:41:06.249Z,49.76
2023-04-18T14:43:35.035Z,48.74
2023-04-18T14:46:09.106Z,48.58
2023-04-18T14:48:50.891Z,49.14
2023-04-18T14:51:27.285Z,49.59
2023-04-18T14:54:04.599Z,49.65
2023-04-18T14:56:48.646Z,49.33
2023-04-18T14:59:32.255Z,49.63
2023-04-18T15:02:12.071Z,49.05
2023-04-18T15:04:50.954Z,49.52
2023-04-18T15:07:32.954Z,50.10
2023-04-18T15:10:09.906Z,49.51
2023-04-18T15:12:47.247Z,50.23
2023-04-18T15:15:26.733Z,50.23
2023-04-18T15:18:07.132Z,50.35
2023-04-18T15:20:51.947Z,49.98
2023-04-18T15:23:32.694Z,50.17
2023-04-18T15:26:11.737Z,51.38
2023-04-18T15:28:48.966Z,50.11
2023-04-18T15:31:18.571Z,50.81
2023-04-18T15:33:50.188Z,50.90
2023-04-18T15:36:18.962Z,51.10
2023-04-18T15:38:48.606Z,51.62
2023-04-18T15:41:17.257Z,50.99
2023-04-18T15:43:46.511Z,51.98
2023-04-18T15:46:15.450Z,51.13
2023-04-18T15:48:44.711Z,51.27
2023-04-18T15:51:13.813Z,51.84
2023-04-18T15:53:42.520Z,51.69
2023-04-18T15:56:11.359Z,51.59
2023-04-18T15:58:40.352Z,50.76
2023-04-18T16:01:10.298Z,52.04
2023-04-18T16:03:39.352Z,51.43
2023-04-18T16:06:10.854Z,51.32
2023-04-18T16:08:39.760Z,52.04
2023-04-18T16:11:09.752Z,51.20
2023-04-18T16:13:38.836Z,51.33
2023-04-18T16:16:08.592Z,52.20
2023-04-18T16:18:37.610Z,51.01
2023-04-18T16:21:06.473Z,51.45
2023-04-18T16:23:35.734Z,51.65
2023-04-18T16:26:04.562Z,50.84
2023-04-18T16:28:38.317Z,51.76
2023-04-18T16:31:09.868Z,52.14
2023-04-18T16:33:39.293Z,50.68
2023-04-18T16:36:08.692Z,51.66
2023-04-18T16:38:37.720Z,50.92
2023-04-18T16:41:06.883Z,51.63
2023-04-18T16:43:38.621Z,51.87
2023-04-18T16:46:08.408Z,52.56
2023-04-18T16:48:39.447Z,51.56
2023-04-18T16:51:08.277Z,52.59
2023-04-18T16:53:37.145Z,51.37
2023-04-18T16:56:06.369Z,51.48
2023-04-18T16:58:35.152Z,52.53
2023-04-18T17:01:03.726Z,52.47
2023-04-18T17:03:32.664Z,51.80
2023-04-18T17:06:02.469Z,51.40
2023-04-18T17:08:34.765Z,52.53
2023-04-18T17:11:04.062Z,52.02
2023-04-18T17:13:33.032Z,52.01
2023-04-18T17:16:01.924Z,51.79
2023-04-18T17:18:30.732Z,52.37
2023-04-18T17:20:59.354Z,51.67
2023-04-18T17:23:28.135Z,51.90
2023-04-18T17:25:57.040Z,51.49
2023-04-18T17:28:25.945Z,51.97
2023-04-18T17:30:54.814Z,51.90
2023-04-18T17:33:23.516Z,52.19
2023-04-18T17:35:52.655Z,52.22
2023-04-18T17:38:21.198Z,52.39
2023-04-18T17:40:49.990Z,52.23
2023-04-18T17:43:18.633Z,52.14
2023-04-18T17:45:47.196Z,53.51
2023-04-18T17:48:17.224Z,52.55
2023-04-18T17:50:46.411Z,52.47
2023-04-18T17:53:15.350Z,52.78
2023-04-18T17:55:45.997Z,52.91
2023-04-18T17:58:17.169Z,52.76
2023-04-18T18:00:46.425Z,53.06
2023-04-18T18:03:16.629Z,54.08
2023-04-18T18:05:50.234Z,53.24
2023-04-18T18:08:18.742Z,53.55
2023-04-18T18:10:48.589Z,53.60
2023-04-18T18:13:17.372Z,54.46
2023-04-18T18:15:46.627Z,54.38
2023-04-18T18:18:30.601Z,53.96
2023-04-18T18:20:59.564Z,54.44
2023-04-18T18:23:28.789Z,54.50
2023-04-18T18:25:57.467Z,54.89
2023-04-18T18:28:26.408Z,54.67
2023-04-18T18:30:55.166Z,55.13
2023-04-18T18:33:24.012Z,55.04
2023-04-18T18:35:55.338Z,55.77
2023-04-18T18:38:27.997Z,55.90
2023-04-18T18:40:56.895Z,55.92
2023-04-18T18:43:27.289Z,55.60
2023-04-18T18:45:56.121Z,55.50
2023-04-18T18:48:25.528Z,54.88
2023-04-18T18:50:55.264Z,55.18
2023-04-18T18:53:24.028Z,55.31
2023-04-18T18:55:52.746Z,55.95
2023-04-18T18:58:22.327Z,56.22
2023-04-18T19:00:51.793Z,55.86
2023-04-18T19:03:22.030Z,55.53
2023-04-18T19:05:50.607Z,55.12
2023-04-18T19:08:19.091Z,55.26
2023-04-18T19:10:47.828Z,55.44
2023-04-18T19:13:16.450Z,55.64
2023-04-18T19:15:45.255Z,56.02
2023-04-18T19:18:14.174Z,55.99
2023-04-18T19:20:43.235Z,55.93
2023-04-18T19:23:12.031Z,55.98
2023-04-18T19:25:40.675Z,56.33
2023-04-18T19:28:09.320Z,56.24
2023-04-18T19:30:38.714Z,56.71
2023-04-18T19:33:08.203Z,56.90
2023-04-18T19:35:38.025Z,56.68
2023-04-18T19:38:06.791Z,56.80
2023-04-18T19:40:35.572Z,57.01
2023-04-18T19:43:04.079Z,57.47
2023-04-18T19:45:32.956Z,57.12
2023-04-18T19:48:01.622Z,57.41
2023-04-18T19:50:30.243Z,58.17
2023-04-18T19:52:58.699Z,57.75
2023-04-18T19:55:27.816Z,58.24
2023-04-18T19:57:57.424Z,58.00
2023-04-18T20:00:26.579Z,57.53
2023-04-18T20:02:55.417Z,57.37
2023-04-18T20:05:24.865Z,58.11
2023-04-18T20:07:53.895Z,58.71
2023-04-18T20:10:25.635Z,57.86
2023-04-18T20:12:54.278Z,58.13
2023-04-18T20:15:23.216Z,58.76
2023-04-18T20:17:51.947Z,57.99
2023-04-18T20:20:20.661Z,58.98
2023-04-18T20:22:50.077Z,58.80
2023-04-18T20:25:18.812Z,58.47
2023-04-18T20:27:47.511Z,59.41
2023-04-18T20:30:16.993Z,58.57
2023-04-18T20:32:45.696Z,59.28
2023-04-18T20:35:14.339Z,58.90
2023-04-18T20:37:43.248Z,58.70
2023-04-18T20:40:12.412Z,58.21
2023-04-18T20:42:41.109Z,58.76
2023-04-18T20:45:14.553Z,59.60
2023-04-18T20:47:44.130Z,59.50
2023-04-18T20:50:14.856Z,59.77
2023-04-18T20:52:43.688Z,59.39
2023-04-18T20:55:12.796Z,59.15
2023-04-18T20:57:41.720Z,58.37
2023-04-18T21:00:11.354Z,59.06
2023-04-18T21:02:40.525Z,58.52
2023-04-18T21:05:09.733Z,58.27
2023-04-18T21:07:38.404Z,60.02
2023-04-18T21:10:07.691Z,59.84
2023-04-18T21:12:36.533Z,59.89
2023-04-18T21:15:06.349Z,60.02
2023-04-18T21:17:35.096Z,59.71
2023-04-18T21:20:04.182Z,58.89
2023-04-18T21:22:32.873Z,59.68
2023-04-18T21:25:04.413Z,59.35
2023-04-18T21:27:33.189Z,59.49
2023-04-18T21:30:04.097Z,60.23
2023-04-18T21:32:33.585Z,59.46
2023-04-18T21:35:02.302Z,59.24
2023-04-18T21:37:31.274Z,59.18
2023-04-18T21:39:59.856Z,59.97
2023-04-18T21:42:28.693Z,59.67
2023-04-18T21:44:57.485Z,59.61
2023-04-18T21:47:28.825Z,59.77
2023-04-18T21:49:57.533Z,60.37
2023-04-18T21:52:26.311Z,60.54
2023-04-18T21:54:54.973Z,60.73
2023-04-18T21:57:23.762Z,59.85
2023-04-18T21:59:52.599Z,59.61
2023-04-18T22:02:23.988Z,60.52
2023-04-18T22:04:52.894Z,61.06
2023-04-18T22:07:22.253Z,60.32
2023-04-18T22:09:51.952Z,60.38
2023-04-18T22:12:20.764Z,60.24
2023-04-18T22:14:49.619Z,60.18
2023-04-18T22:17:18.336Z,59.68
2023-04-18T22:19:49.817Z,59.85
2023-04-18T22:22:18.444Z,59.87
2023-04-18T22:24:47.917Z,60.65
2023-04-18T22:27:16.886Z,60.94
2023-04-18T22:29:45.992Z,60.68
2023-04-18T22:32:14.837Z,60.98
2023-04-18T22:34:43.736Z,60.58
2023-04-18T22:37:12.516Z,60.31
2023-04-18T22:39:41.155Z,60.08
2023-04-18T22:42:09.801Z,60.54
2023-04-18T22:44:38.674Z,60.09
2023-04-18T22:47:08.634Z,60.70
2023-04-18T22:49:38.930Z,60.71
2023-04-18T22:52:08.873Z,61.57
2023-04-18T22:54:41.300Z,60.75
2023-04-18T22:57:10.273Z,60.67
2023-04-18T22:59:38.892Z,61.14
2023-04-18T23:02:07.767Z,61.55
2023-04-18T23:04:36.818Z,60.91
2023-04-18T23:07:05.515Z,60.43
2023-04-18T23:09:34.488Z,61.77
2023-04-18T23:12:03.576Z,61.93
2023-04-18T23:14:32.819Z,61.61
2023-04-18T23:17:02.117Z,62.06
2023-04-18T23:19:30.818Z,61.68
2023-04-18T23:22:00.889Z,61.00
2023-04-18T23:24:29.905Z,61.48
2023-04-18T23:27:01.452Z,62.86
2023-04-18T23:29:30.260Z,62.71
2023-04-18T23:31:59.161Z,61.23
2023-04-18T23:34:27.859Z,61.52
2023-04-18T23:36:56.549Z,62.37
2023-04-18T23:39:27.564Z,61.29
2023-04-18T23:41:56.959Z,62.43
2023-04-18T23:44:25.917Z,61.69
2023-04-18T23:46:54.502Z,61.30
2023-04-18T23:49:23.313Z,62.30
2023-04-18T23:51:52.135Z,61.41
2023-04-18T23:54:20.854Z,61.67
2023-04-18T23:56:49.577Z,63.00
2023-04-18T23:59:18.415Z,61.78
